Spirit Lake, ID (83869)

1:19 PM PDT on March 29, 2015 (GMT -0700)
Spirit Lake Idaho | | Change Station
CLOSE
Current Station
Personal Weather Station
Location: Spirit Lake, ID
Elevation: 2604 ft
Nearby Weather Stations

Elev 2604 ft 47.96 °N, 116.84 °W | Updated 6 seconds ago

Mostly Cloudy
Mostly Cloudy
58.5 °F
Feels Like 58.5 °F
N
2.7
Wind Variable Wind from ESE
Gusts 2.7 mph

Today
High -- | Low -- °F
--% Chance of Precip.
Yesterday
High -- | Low -- °F
Precip. -- in
6:32 AM 7:13 PM
Waxing Gibbous, 74% visible
Pressure 30.21 in
Visibility 10.0 miles
Clouds Few 8500 ft
Dew Point 33 °F
Humidity 38%
Rainfall 0.00 in
Snow Depth Not available.
UV 6 out of 12
Pollen 8.40 out of 12
Air Quality Not available.
Flu Activity Not available.
METAR KCOE 292015Z AUTO 16008KT 10SM FEW085 14/03 A3021 RMK AO1

More Conditions Fewer Conditions

Pressure 30.21 in
Visibility 10.0 miles
Clouds Few 8500 ft
Dew Point 33 °F
Humidity 38%
Rainfall 0.00 in
Snow Depth Not available.
UV 6 out of 12
Pollen 8.40 out of 12
Air Quality Not available.
Flu Activity Not available.
METAR KCOE 292015Z AUTO 16008KT 10SM FEW085 14/03 A3021 RMK AO1

More Conditions Fewer Conditions

10-Day Weather Forecast

Almanac

Astronomy

Mar. 29, 2015 Rise Set
Actual Time
Civil Twilight
Nautical Twilight
Astronomical Twilight
Moon
Length of Visible Light
Length of Day
Tomorrow will be .
, % of the Moon is Illuminated

Today's Extremes

State Highs State Lows

Community

WunderPhotos

Upload Photos

1,809,341 photos uploaded!

WunderBlogs® & News

Nearby

Air Quality

  Air Quality AQ Index Pollutant
Not available.

Snow Depth

Station Depth Elevation

Earthquake Activity

City Distance Mag. Time & Date
Minimum magnitude displayed is 2.5.

Coastal Water Temperatures

Place Temperature

Stations

Nearby Weather Stations

Station Location Temp. Windchill Dew Point Humidity Wind Precip. Elev Updated Type